Terminal Aerodrome Forecast
Issued by NWS

Home | Current Version | Previous Version | Graphics & Text | Print | Product List | Glossary On
Versions: 1 2 3 4 5 6 7 8 9 10 11 12 13 14 15 16
000
FTUS43 KTOP 280500
TAFFOE
TAF
KFOE 280528Z 2806/2906 14008KT P6SM FEW250
     FM281400 18011KT P6SM FEW250
     FM281700 20016G23KT P6SM SCT250
     FM282200 23011KT P6SM FEW250
     FM290100 27010KT P6SM FEW250
     FM290400 32014G20KT P6SM FEW030=

USA.gov is the U.S. government's official web portal to all federal, state and local government web resources and services.